Nieuw-Helvoet, Netherlands
Current Conditions -  °F | °C
As of 2:25 AM on Friday 28 Nov 2014 (Local Time) from EHRD Reporting Station
Overcast Overcast  
Wind Chill: 39°   Ceiling: 1300
Heat Index: 45°   Visibility: 4mi
Dew Point: 43°   Wind: 12mph
Humidity: 93%   Direction: 110°ESE
Pressure: 29.71"   Gusts: NA
Location:  51.84°N, 4.13°E
Report Text: EHRD 280125Z AUTO 11010KT 6000 FEW006 OVC013 07/06 Q1006 TEMPOBKN005
Loading
Personal Weather Stations






























Interactive Weather Map New forecast layout! Learn more

10-Day Weather Forecast

Advertisements
Track Severe Weather on mobile